createdAt,value
2023-02-19T00:00:09.841Z,97182.72
2023-02-19T00:02:38.106Z,97186.88
2023-02-19T00:05:07.791Z,97182.34
2023-02-19T00:07:35.898Z,97184.34
2023-02-19T00:10:03.769Z,97172.03
2023-02-19T00:12:31.724Z,97176.00
2023-02-19T00:14:59.721Z,97178.34
2023-02-19T00:17:27.713Z,97171.81
2023-02-19T00:19:55.603Z,97163.28
2023-02-19T00:22:24.937Z,97164.59
2023-02-19T00:24:52.937Z,97157.88
2023-02-19T00:27:20.862Z,97163.00
2023-02-19T00:29:50.096Z,97154.88
2023-02-19T00:32:18.038Z,97153.91
2023-02-19T00:34:46.153Z,97152.72
2023-02-19T00:37:14.121Z,97153.16
2023-02-19T00:39:43.511Z,97147.47
2023-02-19T00:42:11.462Z,97153.63
2023-02-19T00:44:39.618Z,97141.66
2023-02-19T00:47:07.638Z,97132.53
2023-02-19T00:49:35.634Z,97136.69
2023-02-19T00:52:03.876Z,97138.44
2023-02-19T00:54:32.709Z,97135.63
2023-02-19T00:57:02.181Z,97129.56
2023-02-19T00:59:30.222Z,97118.81
2023-02-19T01:01:58.358Z,97120.19
2023-02-19T01:04:26.228Z,97112.63
2023-02-19T01:06:54.327Z,97107.50
2023-02-19T01:09:22.278Z,97109.28
2023-02-19T01:11:50.504Z,97103.56
2023-02-19T01:14:19.784Z,97104.28
2023-02-19T01:16:47.771Z,97111.84
2023-02-19T01:19:15.771Z,97103.56
2023-02-19T01:21:44.226Z,97100.63
2023-02-19T01:24:12.227Z,97093.22
2023-02-19T01:26:40.630Z,97099.59
2023-02-19T01:29:08.569Z,97093.88
2023-02-19T01:31:38.157Z,97090.16
2023-02-19T01:34:06.570Z,97081.41
2023-02-19T01:36:35.363Z,97084.56
2023-02-19T01:39:05.266Z,97085.31
2023-02-19T01:41:35.832Z,97089.88
2023-02-19T01:44:04.647Z,97089.72
2023-02-19T01:46:33.392Z,97090.06
2023-02-19T01:49:05.870Z,97079.72
2023-02-19T01:51:35.258Z,97083.94
2023-02-19T01:54:05.088Z,97077.16
2023-02-19T01:56:33.880Z,97084.31
2023-02-19T01:59:02.614Z,97081.72
2023-02-19T02:01:30.622Z,97087.47
2023-02-19T02:03:58.708Z,97087.63
2023-02-19T02:06:31.879Z,97065.00
2023-02-19T02:09:17.667Z,97084.56
2023-02-19T02:11:48.254Z,97084.47
2023-02-19T02:14:17.034Z,97079.34
2023-02-19T02:16:50.834Z,97089.72
2023-02-19T02:19:29.405Z,97078.59
2023-02-19T02:22:07.318Z,97072.22
2023-02-19T02:24:52.977Z,97081.19
2023-02-19T02:27:30.551Z,97073.50
2023-02-19T02:30:11.285Z,97069.50
2023-02-19T02:32:41.746Z,97067.50
2023-02-19T02:35:11.530Z,97073.84
2023-02-19T02:37:41.629Z,97075.56
2023-02-19T02:40:12.262Z,97065.06
2023-02-19T02:42:41.706Z,97052.00
2023-02-19T02:45:40.135Z,97055.84
2023-02-19T02:48:18.250Z,97053.25
2023-02-19T02:50:49.157Z,97064.94
2023-02-19T02:53:38.954Z,97063.16
2023-02-19T02:56:07.883Z,97060.91
2023-02-19T02:58:36.472Z,97053.06
2023-02-19T03:01:26.700Z,97051.94
2023-02-19T03:03:56.925Z,97047.03
2023-02-19T03:06:26.753Z,97060.94
2023-02-19T03:08:57.712Z,97053.00
2023-02-19T03:11:43.137Z,97056.53
2023-02-19T03:14:30.050Z,97052.56
2023-02-19T03:17:19.455Z,97052.56
2023-02-19T03:19:48.967Z,97044.56
2023-02-19T03:22:20.138Z,97045.75
2023-02-19T03:25:07.659Z,97041.94
2023-02-19T03:27:36.178Z,97039.19
2023-02-19T03:30:06.480Z,97039.53
2023-02-19T03:32:38.385Z,97041.94
2023-02-19T03:35:08.723Z,97033.44
2023-02-19T03:37:40.008Z,97035.59
2023-02-19T03:40:08.879Z,97032.78
2023-02-19T03:42:42.536Z,97028.50
2023-02-19T03:45:21.166Z,97031.91
2023-02-19T03:47:54.092Z,97033.88
2023-02-19T03:50:26.390Z,97019.00
2023-02-19T03:52:58.014Z,97023.81
2023-02-19T03:55:29.036Z,97027.13
2023-02-19T03:57:59.697Z,97017.16
2023-02-19T04:00:31.914Z,97018.22
2023-02-19T04:03:04.216Z,97020.09
2023-02-19T04:05:33.215Z,97015.00
2023-02-19T04:08:04.923Z,97016.88
2023-02-19T04:10:33.320Z,97008.06
2023-02-19T04:13:03.763Z,96996.34
2023-02-19T04:15:33.300Z,97004.50
2023-02-19T04:18:05.503Z,97008.25
2023-02-19T04:20:35.767Z,97008.63
2023-02-19T04:23:03.794Z,97007.91
2023-02-19T04:25:32.578Z,96995.94
2023-02-19T04:28:00.721Z,97010.19
2023-02-19T04:30:28.815Z,97005.78
2023-02-19T04:32:56.788Z,96997.09
2023-02-19T04:35:26.085Z,97011.59
2023-02-19T04:37:54.028Z,97008.88
2023-02-19T04:40:22.097Z,97007.66
2023-02-19T04:42:50.022Z,97011.97
2023-02-19T04:45:18.167Z,97005.34
2023-02-19T04:47:46.120Z,97011.47
2023-02-19T04:50:14.376Z,97003.38
2023-02-19T04:52:43.787Z,97005.28
2023-02-19T04:55:12.000Z,96996.91
2023-02-19T04:57:40.662Z,96999.69
2023-02-19T05:00:09.665Z,96998.25
2023-02-19T05:02:37.665Z,96994.09
2023-02-19T05:05:05.872Z,96990.72
2023-02-19T05:07:34.459Z,96987.63
2023-02-19T05:10:04.040Z,96986.34
2023-02-19T05:12:32.212Z,96993.06
2023-02-19T05:15:00.219Z,96980.59
2023-02-19T05:17:28.728Z,96976.94
2023-02-19T05:20:01.242Z,96990.38
2023-02-19T05:22:30.228Z,96982.91
2023-02-19T05:24:58.339Z,96982.63
2023-02-19T05:27:28.580Z,96984.06
2023-02-19T05:29:56.929Z,96978.00
2023-02-19T05:32:25.075Z,96970.59
2023-02-19T05:34:53.002Z,96972.28
2023-02-19T05:37:20.947Z,96974.91
2023-02-19T05:39:49.861Z,96969.13
2023-02-19T05:42:17.828Z,96969.44
2023-02-19T05:44:47.206Z,96979.78
2023-02-19T05:47:15.235Z,96971.47
2023-02-19T05:49:43.392Z,96969.09
2023-02-19T05:52:11.431Z,96963.63
2023-02-19T05:54:39.614Z,96974.44
2023-02-19T05:57:09.103Z,96972.66
2023-02-19T05:59:37.006Z,96974.81
2023-02-19T06:02:11.088Z,96973.66
2023-02-19T06:04:39.358Z,96976.91
2023-02-19T06:07:07.288Z,96973.47
2023-02-19T06:09:35.128Z,96968.06
2023-02-19T06:12:03.036Z,96971.47
2023-02-19T06:14:31.102Z,96972.81
2023-02-19T06:16:59.032Z,96959.09
2023-02-19T06:19:28.499Z,96964.38
2023-02-19T06:21:56.384Z,96970.13
2023-02-19T06:24:24.441Z,96966.78
2023-02-19T06:26:52.456Z,96964.47
2023-02-19T06:29:20.371Z,96964.91
2023-02-19T06:31:49.119Z,96964.13
2023-02-19T06:34:17.096Z,96964.81
2023-02-19T06:36:46.507Z,96972.13
2023-02-19T06:39:14.459Z,96959.97
2023-02-19T06:41:42.518Z,96948.72
2023-02-19T06:44:10.893Z,96952.22
2023-02-19T06:46:39.572Z,96948.97
2023-02-19T06:49:07.538Z,96946.34
2023-02-19T06:51:35.486Z,96948.84
2023-02-19T06:54:04.850Z,96951.78
2023-02-19T06:56:34.696Z,96944.34
2023-02-19T06:59:03.903Z,96945.91
2023-02-19T07:01:32.691Z,96939.84
2023-02-19T07:04:00.744Z,96938.91
2023-02-19T07:06:28.767Z,96936.34
2023-02-19T07:08:57.238Z,96934.09
2023-02-19T07:11:26.996Z,96929.72
2023-02-19T07:13:57.998Z,96925.09
2023-02-19T07:16:26.548Z,96924.53
2023-02-19T07:18:57.374Z,96930.72
2023-02-19T07:21:25.685Z,96919.25
2023-02-19T07:23:53.661Z,96920.00
2023-02-19T07:26:22.287Z,96907.50
2023-02-19T07:28:52.321Z,96906.63
2023-02-19T07:31:21.011Z,96910.25
2023-02-19T07:33:49.360Z,96907.75
2023-02-19T07:36:18.483Z,96906.06
2023-02-19T07:38:46.646Z,96904.38
2023-02-19T07:41:14.787Z,96902.81
2023-02-19T07:43:42.741Z,96897.59
2023-02-19T07:46:13.605Z,96901.75
2023-02-19T07:48:42.755Z,96902.28
2023-02-19T07:51:13.254Z,96902.78
2023-02-19T07:53:41.411Z,96887.81
2023-02-19T07:56:09.784Z,96901.53
2023-02-19T07:58:37.756Z,96887.97
2023-02-19T08:01:09.867Z,96892.44
2023-02-19T08:03:38.692Z,96893.00
2023-02-19T08:06:06.872Z,96884.88
2023-02-19T08:08:34.918Z,96880.25
2023-02-19T08:11:20.945Z,96886.44
2023-02-19T08:13:49.669Z,96885.09
2023-02-19T08:16:29.716Z,96882.88
2023-02-19T08:19:06.510Z,96888.69
2023-02-19T08:21:34.636Z,96876.13
2023-02-19T08:24:02.662Z,96874.91
2023-02-19T08:26:30.699Z,96881.53
2023-02-19T08:28:59.120Z,96876.81
2023-02-19T08:31:27.606Z,96881.91
2023-02-19T08:33:56.221Z,96881.97
2023-02-19T08:36:25.809Z,96880.75
2023-02-19T08:38:53.746Z,96877.59
2023-02-19T08:41:22.062Z,96878.50
2023-02-19T08:43:50.153Z,96883.19
2023-02-19T08:46:18.080Z,96873.38
2023-02-19T08:48:46.129Z,96877.28
2023-02-19T08:51:14.380Z,96864.38
2023-02-19T08:53:43.828Z,96867.72
2023-02-19T08:56:12.477Z,96867.38
2023-02-19T08:58:40.513Z,96867.06
2023-02-19T09:01:10.120Z,96866.75
2023-02-19T09:03:38.486Z,96858.88
2023-02-19T09:06:06.577Z,96849.06
2023-02-19T09:08:34.702Z,96853.19
2023-02-19T09:11:05.014Z,96847.47
2023-02-19T09:13:33.061Z,96861.88
2023-02-19T09:16:01.173Z,96850.00
2023-02-19T09:18:29.040Z,96852.13
2023-02-19T09:20:57.831Z,96843.41
2023-02-19T09:23:28.622Z,96846.16
2023-02-19T09:26:00.159Z,96836.88
2023-02-19T09:28:29.599Z,96836.38
2023-02-19T09:30:57.742Z,96838.38
2023-02-19T09:33:25.840Z,96840.50
2023-02-19T09:35:53.763Z,96835.44
2023-02-19T09:38:21.879Z,96827.91
2023-02-19T09:40:49.812Z,96826.06
2023-02-19T09:43:20.060Z,96837.28
2023-02-19T09:45:49.822Z,96825.25
2023-02-19T09:48:17.795Z,96827.47
2023-02-19T09:50:47.180Z,96825.34
2023-02-19T09:53:19.052Z,96814.78
2023-02-19T09:55:46.941Z,96809.84
2023-02-19T09:58:22.256Z,96818.47
2023-02-19T10:00:52.686Z,96812.84
2023-02-19T10:03:23.182Z,96783.34
2023-02-19T10:05:51.192Z,96811.38
2023-02-19T10:08:20.318Z,96806.28
2023-02-19T10:10:48.559Z,96811.66
2023-02-19T10:13:20.332Z,96818.41
2023-02-19T10:15:49.998Z,96811.34
2023-02-19T10:18:21.951Z,96813.22
2023-02-19T10:20:50.835Z,96820.16
2023-02-19T10:23:19.133Z,96816.50
2023-02-19T10:25:48.858Z,96806.91
2023-02-19T10:28:18.358Z,96799.59
2023-02-19T10:30:49.278Z,96807.88
2023-02-19T10:33:17.771Z,96810.75
2023-02-19T10:35:57.573Z,96808.41
2023-02-19T10:38:28.504Z,96802.19
2023-02-19T10:41:01.856Z,96813.59
2023-02-19T10:43:33.948Z,96809.81
2023-02-19T10:46:03.732Z,96805.03
2023-02-19T10:48:33.406Z,96814.28
2023-02-19T10:51:05.133Z,96807.69
2023-02-19T10:53:39.141Z,96805.66
2023-02-19T10:56:08.158Z,96802.72
2023-02-19T10:58:37.917Z,96795.59
2023-02-19T11:01:20.136Z,96796.47
2023-02-19T11:03:48.578Z,96795.25
2023-02-19T11:06:19.396Z,96798.63
2023-02-19T11:08:49.151Z,96793.38
2023-02-19T11:11:27.977Z,96795.00
2023-02-19T11:13:57.712Z,96796.66
2023-02-19T11:16:37.611Z,96789.59
2023-02-19T11:19:05.641Z,96753.47
2023-02-19T11:21:35.887Z,96795.06
2023-02-19T11:24:04.894Z,96793.56
2023-02-19T11:26:38.213Z,96790.38
2023-02-19T11:29:14.347Z,96786.34
2023-02-19T11:31:42.358Z,96799.13
2023-02-19T11:34:29.884Z,96790.88
2023-02-19T11:37:12.328Z,96790.19
2023-02-19T11:39:41.042Z,96786.09
2023-02-19T11:42:29.529Z,96782.75
2023-02-19T11:45:09.727Z,96774.59
2023-02-19T11:47:45.341Z,96784.88
2023-02-19T11:50:19.716Z,96783.19
2023-02-19T11:52:55.217Z,96789.38
2023-02-19T11:55:27.039Z,96788.34
2023-02-19T11:57:58.038Z,96780.84
2023-02-19T12:00:27.640Z,96771.13
2023-02-19T12:03:22.539Z,96776.38
2023-02-19T12:06:05.314Z,96772.81
2023-02-19T12:08:51.240Z,96778.28
2023-02-19T12:11:28.617Z,96777.25
2023-02-19T12:14:03.484Z,96771.88
2023-02-19T12:16:32.986Z,96776.81
2023-02-19T12:19:21.868Z,96781.56
2023-02-19T12:21:57.232Z,96780.19
2023-02-19T12:24:36.864Z,96778.38
2023-02-19T12:27:15.890Z,96777.34
2023-02-19T12:29:50.383Z,96778.44
2023-02-19T12:32:27.795Z,96771.66
2023-02-19T12:35:12.533Z,96778.50
2023-02-19T12:37:46.433Z,96785.31
2023-02-19T12:40:18.814Z,96780.56
2023-02-19T12:42:54.206Z,96786.78
2023-02-19T12:45:25.774Z,96784.00
2023-02-19T12:48:00.876Z,96776.50
2023-02-19T12:50:28.995Z,96787.00
2023-02-19T12:52:59.313Z,96788.47
2023-02-19T12:55:29.409Z,96786.25
2023-02-19T12:58:01.544Z,96783.09
2023-02-19T13:00:31.803Z,96787.00
2023-02-19T13:03:02.312Z,96785.03
2023-02-19T13:05:37.319Z,96794.13
2023-02-19T13:08:07.781Z,96787.59
2023-02-19T13:10:41.417Z,96784.78
2023-02-19T13:13:13.672Z,96790.16
2023-02-19T13:15:44.205Z,96792.75
2023-02-19T13:18:15.720Z,96783.72
2023-02-19T13:20:44.686Z,96787.03
2023-02-19T13:23:32.336Z,96791.13
2023-02-19T13:26:08.278Z,96779.47
2023-02-19T13:28:50.825Z,96775.84
2023-02-19T13:31:36.752Z,96777.28
2023-02-19T13:34:11.100Z,96778.84
2023-02-19T13:36:39.253Z,96778.38
2023-02-19T13:39:07.755Z,96780.47
2023-02-19T13:41:39.707Z,96757.16
2023-02-19T13:44:18.008Z,96779.97
2023-02-19T13:46:47.214Z,96782.88
2023-02-19T13:49:41.352Z,96783.56
2023-02-19T13:52:27.965Z,96788.75
2023-02-19T13:55:23.888Z,96780.44
2023-02-19T13:57:51.922Z,96773.66
2023-02-19T14:00:50.598Z,96769.56
2023-02-19T14:03:28.822Z,96764.78
2023-02-19T14:06:01.526Z,96754.78
2023-02-19T14:08:44.394Z,96764.53
2023-02-19T14:11:14.476Z,96758.09
2023-02-19T14:14:11.233Z,96759.19
2023-02-19T14:16:53.969Z,96747.25
2023-02-19T14:19:36.818Z,96754.31
2023-02-19T14:22:27.740Z,96749.13
2023-02-19T14:24:56.056Z,96751.25
2023-02-19T14:27:24.229Z,96754.16
2023-02-19T14:29:52.911Z,96751.16
2023-02-19T14:32:21.471Z,96750.00
2023-02-19T14:34:49.554Z,96752.19
2023-02-19T14:37:21.155Z,96754.31
2023-02-19T14:39:49.293Z,96750.41
2023-02-19T14:42:18.767Z,96754.53
2023-02-19T14:44:49.386Z,96745.13
2023-02-19T14:47:19.522Z,96737.81
2023-02-19T14:49:49.459Z,96743.69
2023-02-19T14:52:21.531Z,96736.84
2023-02-19T14:54:51.216Z,96739.25
2023-02-19T14:57:21.535Z,96739.78
2023-02-19T14:59:57.566Z,96742.88
2023-02-19T15:02:26.166Z,96730.63
2023-02-19T15:04:54.697Z,96740.66
2023-02-19T15:07:25.920Z,96734.28
2023-02-19T15:09:57.331Z,96741.34
2023-02-19T15:12:26.569Z,96738.88
2023-02-19T15:14:57.312Z,96738.53
2023-02-19T15:17:27.361Z,96739.66
2023-02-19T15:19:55.767Z,96737.94
2023-02-19T15:22:28.602Z,96731.47
2023-02-19T15:24:56.566Z,96733.03
2023-02-19T15:27:25.410Z,96723.59
2023-02-19T15:29:54.162Z,96735.22
2023-02-19T15:32:23.330Z,96720.38
2023-02-19T15:34:57.708Z,96725.41
2023-02-19T15:37:28.287Z,96726.13
2023-02-19T15:39:57.692Z,96712.16
2023-02-19T15:42:26.874Z,96716.97
2023-02-19T15:44:58.362Z,96721.28
2023-02-19T15:47:33.294Z,96720.16
2023-02-19T15:50:09.020Z,96723.75
2023-02-19T15:52:45.699Z,96716.56
2023-02-19T15:55:20.941Z,96717.75
2023-02-19T15:57:52.168Z,96718.22
2023-02-19T16:00:22.362Z,96706.50
2023-02-19T16:02:50.538Z,96715.53
2023-02-19T16:05:25.953Z,96710.75
2023-02-19T16:08:08.603Z,96705.81
2023-02-19T16:10:36.689Z,96691.09
2023-02-19T16:13:05.588Z,96700.09
2023-02-19T16:15:34.451Z,96704.47
2023-02-19T16:18:02.539Z,96709.44
2023-02-19T16:20:31.309Z,96703.28
2023-02-19T16:23:00.980Z,96708.31
2023-02-19T16:25:32.799Z,96709.66
2023-02-19T16:28:00.837Z,96711.22
2023-02-19T16:30:30.951Z,96701.72
2023-02-19T16:33:17.450Z,96697.66
2023-02-19T16:35:45.418Z,96695.50
2023-02-19T16:38:14.165Z,96696.47
2023-02-19T16:41:03.076Z,96692.91
2023-02-19T16:43:39.559Z,96697.69
2023-02-19T16:46:09.892Z,96691.81
2023-02-19T16:48:38.107Z,96700.22
2023-02-19T16:51:06.977Z,96699.13
2023-02-19T16:53:35.110Z,96699.81
2023-02-19T16:56:03.169Z,96706.16
2023-02-19T16:58:32.516Z,96699.72
2023-02-19T17:01:00.971Z,96703.84
2023-02-19T17:03:28.988Z,96698.72
2023-02-19T17:05:57.587Z,96694.50
2023-02-19T17:08:35.598Z,96699.13
2023-02-19T17:11:04.895Z,96690.31
2023-02-19T17:13:34.383Z,96692.47
2023-02-19T17:16:02.599Z,96693.94
2023-02-19T17:18:30.596Z,96696.13
2023-02-19T17:21:00.942Z,96690.31
2023-02-19T17:23:28.871Z,96690.22
2023-02-19T17:25:56.999Z,96687.28
2023-02-19T17:28:24.907Z,96692.13
2023-02-19T17:30:54.376Z,96688.50
2023-02-19T17:33:22.302Z,96684.75
2023-02-19T17:35:50.345Z,96675.19
2023-02-19T17:38:18.197Z,96680.53
2023-02-19T17:40:46.445Z,96681.53
2023-02-19T17:43:14.835Z,96678.56
2023-02-19T17:45:42.957Z,96680.66
2023-02-19T17:48:13.413Z,96673.63
2023-02-19T17:50:41.717Z,96678.81
2023-02-19T17:53:10.179Z,96676.84
2023-02-19T17:55:38.022Z,96680.84
2023-02-19T17:58:06.093Z,96675.59
2023-02-19T18:00:36.712Z,96677.00
2023-02-19T18:03:04.790Z,96671.50
2023-02-19T18:05:34.130Z,96675.81
2023-02-19T18:08:02.120Z,96678.19
2023-02-19T18:10:30.633Z,96670.97
2023-02-19T18:12:58.484Z,96674.38
2023-02-19T18:15:27.518Z,96671.75
2023-02-19T18:17:56.047Z,96668.13
2023-02-19T18:20:25.113Z,96665.69
2023-02-19T18:22:54.768Z,96672.53
2023-02-19T18:25:23.154Z,96665.06
2023-02-19T18:27:51.134Z,96664.91
2023-02-19T18:30:20.646Z,96668.84
2023-02-19T18:32:49.043Z,96664.59
2023-02-19T18:35:17.328Z,96669.00
2023-02-19T18:37:45.523Z,96665.38
2023-02-19T18:40:15.265Z,96672.78
2023-02-19T18:42:43.161Z,96659.81
2023-02-19T18:45:11.113Z,96663.91
2023-02-19T18:47:39.095Z,96666.78
2023-02-19T18:50:08.439Z,96659.03
2023-02-19T18:52:36.385Z,96660.28
2023-02-19T18:55:04.423Z,96665.28
2023-02-19T18:57:33.817Z,96662.31
2023-02-19T19:00:01.841Z,96665.53
2023-02-19T19:02:42.649Z,96658.63
2023-02-19T19:05:17.908Z,96660.50
2023-02-19T19:07:45.880Z,96662.88
2023-02-19T19:10:14.868Z,96656.59
2023-02-19T19:12:44.142Z,96648.97
2023-02-19T19:15:12.165Z,96653.44
2023-02-19T19:17:40.569Z,96656.69
2023-02-19T19:20:09.089Z,96655.00
2023-02-19T19:22:37.263Z,96645.59
2023-02-19T19:25:05.529Z,96644.88
2023-02-19T19:27:33.478Z,96640.41
2023-02-19T19:30:02.939Z,96645.91
2023-02-19T19:32:31.675Z,96647.56
2023-02-19T19:34:59.653Z,96647.56
2023-02-19T19:37:29.298Z,96650.16
2023-02-19T19:39:57.385Z,96648.63
2023-02-19T19:42:25.391Z,96650.75
2023-02-19T19:44:53.384Z,96647.06
2023-02-19T19:47:22.710Z,96648.09
2023-02-19T19:49:50.680Z,96650.28
2023-02-19T19:52:18.696Z,96652.25
2023-02-19T19:54:46.712Z,96655.16
2023-02-19T19:57:14.702Z,96649.72
2023-02-19T19:59:42.608Z,96652.78
2023-02-19T20:02:12.041Z,96654.91
2023-02-19T20:04:41.355Z,96656.75
2023-02-19T20:07:09.221Z,96651.22
2023-02-19T20:09:37.131Z,96656.25
2023-02-19T20:12:05.261Z,96659.09
2023-02-19T20:14:33.901Z,96658.16
2023-02-19T20:17:02.036Z,96652.78
2023-02-19T20:19:29.949Z,96652.63
2023-02-19T20:21:59.341Z,96650.03
2023-02-19T20:24:28.983Z,96643.94
2023-02-19T20:26:58.681Z,96642.44
2023-02-19T20:29:27.947Z,96641.09
2023-02-19T20:31:56.637Z,96638.75
2023-02-19T20:34:24.716Z,96644.78
2023-02-19T20:36:53.058Z,96647.38
2023-02-19T20:39:22.994Z,96649.19
2023-02-19T20:41:51.881Z,96639.09
2023-02-19T20:44:20.689Z,96639.78
2023-02-19T20:46:49.530Z,96647.69
2023-02-19T20:49:18.839Z,96643.81
2023-02-19T20:51:47.327Z,96643.81
2023-02-19T20:54:15.969Z,96645.22
2023-02-19T20:56:46.824Z,96638.56
2023-02-19T20:59:15.077Z,96645.00
2023-02-19T21:01:43.137Z,96634.38
2023-02-19T21:04:13.444Z,96647.09
2023-02-19T21:06:41.337Z,96636.81
2023-02-19T21:09:09.271Z,96647.97
2023-02-19T21:11:37.409Z,96641.53
2023-02-19T21:14:06.700Z,96648.03
2023-02-19T21:16:34.825Z,96638.47
2023-02-19T21:19:02.772Z,96644.97
2023-02-19T21:21:31.900Z,96636.16
2023-02-19T21:24:00.557Z,96644.50
2023-02-19T21:26:34.125Z,96647.63
2023-02-19T21:29:01.992Z,96640.63
2023-02-19T21:31:38.463Z,96642.97
2023-02-19T21:34:06.847Z,96643.50
2023-02-19T21:36:34.864Z,96646.06
2023-02-19T21:39:02.813Z,96647.13
2023-02-19T21:41:30.953Z,96646.09
2023-02-19T21:43:59.126Z,96645.63
2023-02-19T21:46:27.421Z,96638.66
2023-02-19T21:48:57.603Z,96647.22
2023-02-19T21:51:29.476Z,96645.41
2023-02-19T21:53:57.478Z,96644.13
2023-02-19T21:56:26.527Z,96651.66
2023-02-19T21:58:54.494Z,96652.22
2023-02-19T22:01:22.328Z,96651.44
2023-02-19T22:03:50.277Z,96654.59
2023-02-19T22:06:19.805Z,96645.16
2023-02-19T22:08:47.760Z,96640.63
2023-02-19T22:11:15.714Z,96636.75
2023-02-19T22:13:43.733Z,96639.06
2023-02-19T22:16:12.276Z,96638.31
2023-02-19T22:18:40.497Z,96643.84
2023-02-19T22:21:08.411Z,96641.75
2023-02-19T22:23:37.684Z,96642.31
2023-02-19T22:26:05.815Z,96642.03
2023-02-19T22:28:33.694Z,96643.59
2023-02-19T22:31:01.556Z,96649.31
2023-02-19T22:33:29.497Z,96637.84
2023-02-19T22:35:57.386Z,96638.28
2023-02-19T22:38:25.329Z,96637.06
2023-02-19T22:40:54.618Z,96640.22
2023-02-19T22:43:22.479Z,96644.13
2023-02-19T22:45:50.463Z,96642.03
2023-02-19T22:48:29.671Z,96647.50
2023-02-19T22:50:58.999Z,96650.16
2023-02-19T22:53:27.058Z,96642.94
2023-02-19T22:55:56.357Z,96642.94
2023-02-19T22:58:24.195Z,96640.34
2023-02-19T23:00:52.124Z,96642.13
2023-02-19T23:03:19.984Z,96638.78
2023-02-19T23:05:48.678Z,96652.03
2023-02-19T23:08:16.717Z,96645.06
2023-02-19T23:10:44.770Z,96646.63
2023-02-19T23:13:14.110Z,96650.75
2023-02-19T23:15:42.037Z,96655.19
2023-02-19T23:18:10.076Z,96657.78
2023-02-19T23:20:38.142Z,96655.94
2023-02-19T23:23:05.991Z,96653.69
2023-02-19T23:25:33.923Z,96653.91
2023-02-19T23:28:01.859Z,96655.47
2023-02-19T23:30:31.314Z,96654.44
2023-02-19T23:32:59.359Z,96654.72
2023-02-19T23:35:27.230Z,96657.03
2023-02-19T23:37:55.248Z,96652.09
2023-02-19T23:40:23.120Z,96663.50
2023-02-19T23:42:50.987Z,96663.22
2023-02-19T23:45:19.111Z,96664.00
2023-02-19T23:47:48.404Z,96664.78
2023-02-19T23:50:16.311Z,96658.03
2023-02-19T23:52:44.284Z,96662.19
2023-02-19T23:55:12.337Z,96658.81
2023-02-19T23:57:40.706Z,96658.25
